Aérodrome :
LOGIN :

S'inscrire | Disclaimer

   EN    FR    IT 

 










Légende :    VFR   VFR Marginal   IFR   IFR Intensif   IFR Très Intensif
Visi : 
Plafond : 
>= 8 km
>= 3000ft
5 à 8 km
1000 à 3000 ft
1500m à 5 km
500 à 1000 ft
800 à 1500m
200 à 500 ft
< 800m
< 200 ft
Symboles :   Orages  Brouillard  Fortes neiges  Fortes précipitations  Vent > 20 kt
SIGMETs :   Divers  Orages  Givrage  Turbulence  Onde Orograph.  Cendres Volcan.







- Altitude de l'aérodrome : 1649 ft
- Code IATA : HHN


EDFH - Frankfurt-Hahn Rhineland-Palatinate

DERNIER METAR :
  • 122150Z 29006KT 250V320 3000 -RA BR SCT001 BKN002 10/10 Q1019

METARs EXPIRÉS :
  • 122120Z 26006KT 240V300 5000 -RA BKN002 11/10 Q1019
  • 122050Z 27005KT 220V310 9000 -RA BKN006 11/11 Q1018
  • 122020Z 24007KT 9000 -RA BKN015 11/11 Q1019
  • 121950Z 23006KT 200V270 9999 -RA BKN016 12/11 Q1018
  • 121920Z 23007KT 200V260 9999 -RA FEW015 BKN060 12/11 Q1018
  • 121850Z 22010KT 9999 FEW015 12/11 Q1018

TAF TAF EDFH
Valide du 12 à 18h jusqu'au 13 à 18h UTC


121700Z 1218/1318 23010KT 9999 BKN025
TEMPO 1218/1308 3000 RA BKN008 SCT015TCU
PROB30
TEMPO 1223/1306 BKN004
PROB30
TEMPO 1311/1316 26015G25KT SHRA BKN014CB
Pas de NOTAMs connus pour ce terrain.



MET'MAP, la Météo Aéronautique d'un coup d'oeil ! - Copyright ORBIFLY Décembre 2007 - Disclaimer

ORBIFLY MET'MAP TEAM :

Programmation & Développement : Alexandra Zaïnal
Conception & Développement : Baudouin d'Aumeries
Co-Programmation & Développement : Marc-Olivier Méhu
Soutien technique & logistique : Manuel Goepfert

Contact : metmap@orbifly.com




SOURCES & CREDITS :

   NOAA